sensor_id;sensor_type;location;lat;lon;timestamp;P1;durP1;ratioP1;P2;durP2;ratioP2
62852;SDS011;49205;44.868;38.140;2022-12-10T00:01:50;11.97;;;7.78;;
62852;SDS011;49205;44.868;38.140;2022-12-10T00:04:19;14.23;;;8.30;;
62852;SDS011;49205;44.868;38.140;2022-12-10T00:06:48;14.00;;;8.80;;
62852;SDS011;49205;44.868;38.140;2022-12-10T00:09:18;12.82;;;8.45;;
62852;SDS011;49205;44.868;38.140;2022-12-10T00:11:48;14.55;;;7.65;;
62852;SDS011;49205;44.868;38.140;2022-12-10T00:14:18;13.85;;;8.05;;
62852;SDS011;49205;44.868;38.140;2022-12-10T00:16:47;12.18;;;8.03;;
62852;SDS011;49205;44.868;38.140;2022-12-10T00:19:16;13.80;;;8.43;;
62852;SDS011;49205;44.868;38.140;2022-12-10T00:21:45;13.68;;;7.90;;
62852;SDS011;49205;44.868;38.140;2022-12-10T00:24:15;14.20;;;7.87;;
62852;SDS011;49205;44.868;38.140;2022-12-10T00:26:44;13.48;;;8.03;;
62852;SDS011;49205;44.868;38.140;2022-12-10T00:29:13;12.55;;;7.58;;
62852;SDS011;49205;44.868;38.140;2022-12-10T00:31:42;12.60;;;8.73;;
62852;SDS011;49205;44.868;38.140;2022-12-10T00:34:11;15.38;;;9.38;;
62852;SDS011;49205;44.868;38.140;2022-12-10T00:36:47;12.53;;;8.98;;
62852;SDS011;49205;44.868;38.140;2022-12-10T00:39:17;11.95;;;8.53;;
62852;SDS011;49205;44.868;38.140;2022-12-10T00:41:47;12.78;;;8.23;;
62852;SDS011;49205;44.868;38.140;2022-12-10T00:44:16;15.78;;;8.90;;
62852;SDS011;49205;44.868;38.140;2022-12-10T00:46:46;14.03;;;8.53;;
62852;SDS011;49205;44.868;38.140;2022-12-10T00:49:15;14.28;;;10.13;;
62852;SDS011;49205;44.868;38.140;2022-12-10T00:51:44;16.80;;;9.93;;
62852;SDS011;49205;44.868;38.140;2022-12-10T00:54:13;17.75;;;9.03;;
62852;SDS011;49205;44.868;38.140;2022-12-10T00:56:42;16.73;;;8.90;;
62852;SDS011;49205;44.868;38.140;2022-12-10T00:59:11;12.00;;;8.58;;
62852;SDS011;49205;44.868;38.140;2022-12-10T01:01:41;13.58;;;8.28;;
62852;SDS011;49205;44.868;38.140;2022-12-10T01:04:12;12.73;;;8.40;;
62852;SDS011;49205;44.868;38.140;2022-12-10T01:06:43;13.85;;;8.85;;
62852;SDS011;49205;44.868;38.140;2022-12-10T01:09:14;14.38;;;8.15;;
62852;SDS011;49205;44.868;38.140;2022-12-10T01:11:46;16.73;;;9.50;;
62852;SDS011;49205;44.868;38.140;2022-12-10T01:14:18;16.05;;;9.33;;
62852;SDS011;49205;44.868;38.140;2022-12-10T01:19:20;18.92;;;10.03;;
62852;SDS011;49205;44.868;38.140;2022-12-10T01:21:55;14.38;;;8.25;;
62852;SDS011;49205;44.868;38.140;2022-12-10T01:24:21;14.68;;;8.73;;
62852;SDS011;49205;44.868;38.140;2022-12-10T01:26:51;15.45;;;8.68;;
62852;SDS011;49205;44.868;38.140;2022-12-10T01:29:22;16.40;;;10.50;;
62852;SDS011;49205;44.868;38.140;2022-12-10T01:31:51;15.03;;;9.55;;
62852;SDS011;49205;44.868;38.140;2022-12-10T01:34:22;13.35;;;9.00;;
62852;SDS011;49205;44.868;38.140;2022-12-10T01:36:53;16.32;;;9.43;;
62852;SDS011;49205;44.868;38.140;2022-12-10T01:39:23;17.73;;;9.68;;
62852;SDS011;49205;44.868;38.140;2022-12-10T01:41:58;15.15;;;8.13;;
62852;SDS011;49205;44.868;38.140;2022-12-10T01:46:56;13.85;;;8.28;;
62852;SDS011;49205;44.868;38.140;2022-12-10T01:49:35;16.37;;;9.18;;
62852;SDS011;49205;44.868;38.140;2022-12-10T01:52:06;12.37;;;7.60;;
62852;SDS011;49205;44.868;38.140;2022-12-10T01:54:38;17.20;;;8.38;;
62852;SDS011;49205;44.868;38.140;2022-12-10T01:57:15;12.93;;;8.00;;
62852;SDS011;49205;44.868;38.140;2022-12-10T01:59:46;14.03;;;8.35;;
62852;SDS011;49205;44.868;38.140;2022-12-10T02:02:20;13.35;;;9.23;;
62852;SDS011;49205;44.868;38.140;2022-12-10T02:05:01;13.15;;;8.40;;
62852;SDS011;49205;44.868;38.140;2022-12-10T02:10:30;14.07;;;8.43;;
62852;SDS011;49205;44.868;38.140;2022-12-10T02:15:43;14.50;;;8.78;;
62852;SDS011;49205;44.868;38.140;2022-12-10T02:20:59;15.13;;;8.88;;
62852;SDS011;49205;44.868;38.140;2022-12-10T02:26:06;13.05;;;8.30;;
62852;SDS011;49205;44.868;38.140;2022-12-10T02:29:13;17.30;;;9.10;;
62852;SDS011;49205;44.868;38.140;2022-12-10T02:31:45;12.35;;;7.55;;
62852;SDS011;49205;44.868;38.140;2022-12-10T02:34:16;17.42;;;8.43;;
62852;SDS011;49205;44.868;38.140;2022-12-10T02:36:47;13.58;;;8.03;;
62852;SDS011;49205;44.868;38.140;2022-12-10T02:39:20;14.90;;;7.85;;
62852;SDS011;49205;44.868;38.140;2022-12-10T02:41:53;17.98;;;8.50;;
62852;SDS011;49205;44.868;38.140;2022-12-10T02:44:25;15.60;;;8.05;;
62852;SDS011;49205;44.868;38.140;2022-12-10T02:46:57;13.18;;;7.10;;
62852;SDS011;49205;44.868;38.140;2022-12-10T02:49:29;7.78;;;5.72;;
62852;SDS011;49205;44.868;38.140;2022-12-10T02:51:59;12.00;;;7.17;;
62852;SDS011;49205;44.868;38.140;2022-12-10T02:54:40;13.93;;;7.15;;
62852;SDS011;49205;44.868;38.140;2022-12-10T02:57:18;17.35;;;6.47;;
62852;SDS011;49205;44.868;38.140;2022-12-10T03:00:10;10.65;;;5.80;;
62852;SDS011;49205;44.868;38.140;2022-12-10T03:03:02;12.68;;;7.40;;
62852;SDS011;49205;44.868;38.140;2022-12-10T03:05:41;13.85;;;6.80;;
62852;SDS011;49205;44.868;38.140;2022-12-10T03:08:24;12.80;;;6.83;;
62852;SDS011;49205;44.868;38.140;2022-12-10T03:13:40;13.40;;;7.20;;
62852;SDS011;49205;44.868;38.140;2022-12-10T03:16:28;14.45;;;6.03;;
62852;SDS011;49205;44.868;38.140;2022-12-10T03:19:00;12.28;;;7.40;;
62852;SDS011;49205;44.868;38.140;2022-12-10T03:21:29;13.10;;;8.00;;
62852;SDS011;49205;44.868;38.140;2022-12-10T03:24:01;13.68;;;8.10;;
62852;SDS011;49205;44.868;38.140;2022-12-10T03:26:31;12.95;;;8.93;;
62852;SDS011;49205;44.868;38.140;2022-12-10T03:29:02;12.82;;;7.95;;
62852;SDS011;49205;44.868;38.140;2022-12-10T03:31:33;11.00;;;7.22;;
62852;SDS011;49205;44.868;38.140;2022-12-10T03:34:03;12.70;;;7.45;;
62852;SDS011;49205;44.868;38.140;2022-12-10T03:36:33;12.82;;;7.65;;
62852;SDS011;49205;44.868;38.140;2022-12-10T03:39:03;14.20;;;7.58;;
62852;SDS011;49205;44.868;38.140;2022-12-10T03:41:32;14.53;;;8.40;;
62852;SDS011;49205;44.868;38.140;2022-12-10T03:44:02;16.12;;;9.58;;
62852;SDS011;49205;44.868;38.140;2022-12-10T03:46:31;11.45;;;7.20;;
62852;SDS011;49205;44.868;38.140;2022-12-10T03:49:01;13.50;;;8.93;;
62852;SDS011;49205;44.868;38.140;2022-12-10T03:51:31;15.08;;;8.40;;
62852;SDS011;49205;44.868;38.140;2022-12-10T03:54:00;13.22;;;8.10;;
62852;SDS011;49205;44.868;38.140;2022-12-10T03:56:30;11.00;;;7.95;;
62852;SDS011;49205;44.868;38.140;2022-12-10T03:58:59;14.93;;;7.45;;
62852;SDS011;49205;44.868;38.140;2022-12-10T04:01:28;13.95;;;7.62;;
62852;SDS011;49205;44.868;38.140;2022-12-10T04:03:57;14.20;;;8.30;;
62852;SDS011;49205;44.868;38.140;2022-12-10T04:06:27;14.28;;;8.38;;
62852;SDS011;49205;44.868;38.140;2022-12-10T04:08:56;18.87;;;9.58;;
62852;SDS011;49205;44.868;38.140;2022-12-10T04:11:25;18.00;;;8.70;;
62852;SDS011;49205;44.868;38.140;2022-12-10T04:13:56;16.17;;;9.18;;
62852;SDS011;49205;44.868;38.140;2022-12-10T04:16:43;14.75;;;8.85;;
62852;SDS011;49205;44.868;38.140;2022-12-10T04:19:13;16.15;;;9.45;;
62852;SDS011;49205;44.868;38.140;2022-12-10T04:21:47;19.82;;;9.25;;
62852;SDS011;49205;44.868;38.140;2022-12-10T04:24:33;14.83;;;7.62;;
62852;SDS011;49205;44.868;38.140;2022-12-10T04:27:25;22.07;;;11.30;;
62852;SDS011;49205;44.868;38.140;2022-12-10T04:29:56;17.52;;;9.85;;
62852;SDS011;49205;44.868;38.140;2022-12-10T04:32:27;28.15;;;14.68;;
62852;SDS011;49205;44.868;38.140;2022-12-10T04:34:57;29.25;;;14.15;;
62852;SDS011;49205;44.868;38.140;2022-12-10T04:37:27;23.67;;;13.15;;
62852;SDS011;49205;44.868;38.140;2022-12-10T04:39:56;23.45;;;12.73;;
62852;SDS011;49205;44.868;38.140;2022-12-10T04:42:26;27.45;;;12.80;;
62852;SDS011;49205;44.868;38.140;2022-12-10T04:44:55;25.95;;;13.50;;
62852;SDS011;49205;44.868;38.140;2022-12-10T04:47:24;25.35;;;11.80;;
62852;SDS011;49205;44.868;38.140;2022-12-10T04:49:54;24.12;;;12.28;;
62852;SDS011;49205;44.868;38.140;2022-12-10T04:52:23;21.10;;;12.40;;
62852;SDS011;49205;44.868;38.140;2022-12-10T04:54:52;16.32;;;10.35;;
62852;SDS011;49205;44.868;38.140;2022-12-10T04:57:21;24.63;;;12.45;;
62852;SDS011;49205;44.868;38.140;2022-12-10T04:59:50;22.82;;;10.60;;
62852;SDS011;49205;44.868;38.140;2022-12-10T05:02:20;17.05;;;9.90;;
62852;SDS011;49205;44.868;38.140;2022-12-10T05:04:49;18.27;;;11.20;;
62852;SDS011;49205;44.868;38.140;2022-12-10T05:07:18;22.42;;;10.58;;
62852;SDS011;49205;44.868;38.140;2022-12-10T05:09:47;26.37;;;12.90;;
62852;SDS011;49205;44.868;38.140;2022-12-10T05:15:05;28.27;;;12.95;;
62852;SDS011;49205;44.868;38.140;2022-12-10T05:17:36;21.17;;;12.45;;
62852;SDS011;49205;44.868;38.140;2022-12-10T05:20:05;27.40;;;12.18;;
62852;SDS011;49205;44.868;38.140;2022-12-10T05:22:35;22.20;;;12.93;;
62852;SDS011;49205;44.868;38.140;2022-12-10T05:25:22;27.17;;;13.83;;
62852;SDS011;49205;44.868;38.140;2022-12-10T05:27:51;37.73;;;19.35;;
62852;SDS011;49205;44.868;38.140;2022-12-10T05:30:20;23.55;;;12.18;;
62852;SDS011;49205;44.868;38.140;2022-12-10T05:32:50;28.10;;;14.13;;
62852;SDS011;49205;44.868;38.140;2022-12-10T05:35:19;21.25;;;12.50;;
62852;SDS011;49205;44.868;38.140;2022-12-10T05:37:49;26.15;;;13.62;;
62852;SDS011;49205;44.868;38.140;2022-12-10T05:40:18;19.57;;;12.37;;
62852;SDS011;49205;44.868;38.140;2022-12-10T05:42:48;27.10;;;13.83;;
62852;SDS011;49205;44.868;38.140;2022-12-10T05:45:17;17.55;;;10.28;;
62852;SDS011;49205;44.868;38.140;2022-12-10T05:47:46;34.53;;;14.83;;
62852;SDS011;49205;44.868;38.140;2022-12-10T05:50:15;24.47;;;14.85;;
62852;SDS011;49205;44.868;38.140;2022-12-10T05:52:44;25.90;;;11.43;;
62852;SDS011;49205;44.868;38.140;2022-12-10T05:55:13;21.52;;;12.75;;
62852;SDS011;49205;44.868;38.140;2022-12-10T05:57:43;25.48;;;14.55;;
62852;SDS011;49205;44.868;38.140;2022-12-10T06:00:12;23.50;;;12.45;;
62852;SDS011;49205;44.868;38.140;2022-12-10T06:02:42;24.12;;;12.73;;
62852;SDS011;49205;44.868;38.140;2022-12-10T06:05:11;21.93;;;11.60;;
62852;SDS011;49205;44.868;38.140;2022-12-10T06:07:40;22.40;;;12.00;;
62852;SDS011;49205;44.868;38.140;2022-12-10T06:10:10;18.73;;;11.12;;
62852;SDS011;49205;44.868;38.140;2022-12-10T06:12:39;17.55;;;10.40;;
62852;SDS011;49205;44.868;38.140;2022-12-10T06:15:09;18.02;;;10.70;;
62852;SDS011;49205;44.868;38.140;2022-12-10T06:17:38;18.17;;;11.33;;
62852;SDS011;49205;44.868;38.140;2022-12-10T06:20:08;34.50;;;17.57;;
62852;SDS011;49205;44.868;38.140;2022-12-10T06:22:38;64.27;;;22.55;;
62852;SDS011;49205;44.868;38.140;2022-12-10T06:25:07;19.80;;;10.48;;
62852;SDS011;49205;44.868;38.140;2022-12-10T06:27:37;29.37;;;12.45;;
62852;SDS011;49205;44.868;38.140;2022-12-10T06:30:07;28.47;;;12.78;;
62852;SDS011;49205;44.868;38.140;2022-12-10T06:32:37;18.92;;;10.32;;
62852;SDS011;49205;44.868;38.140;2022-12-10T06:35:06;18.42;;;10.72;;
62852;SDS011;49205;44.868;38.140;2022-12-10T06:37:35;14.63;;;9.70;;
62852;SDS011;49205;44.868;38.140;2022-12-10T06:40:05;19.32;;;10.45;;
62852;SDS011;49205;44.868;38.140;2022-12-10T06:42:35;21.05;;;11.85;;
62852;SDS011;49205;44.868;38.140;2022-12-10T06:45:04;23.20;;;11.65;;
62852;SDS011;49205;44.868;38.140;2022-12-10T06:47:34;19.48;;;11.35;;
62852;SDS011;49205;44.868;38.140;2022-12-10T06:50:03;20.50;;;10.80;;
62852;SDS011;49205;44.868;38.140;2022-12-10T06:52:33;21.90;;;11.75;;
62852;SDS011;49205;44.868;38.140;2022-12-10T06:55:02;24.55;;;13.15;;
62852;SDS011;49205;44.868;38.140;2022-12-10T06:57:32;19.92;;;10.85;;
62852;SDS011;49205;44.868;38.140;2022-12-10T07:00:01;17.62;;;9.73;;
62852;SDS011;49205;44.868;38.140;2022-12-10T07:02:31;15.50;;;10.45;;
62852;SDS011;49205;44.868;38.140;2022-12-10T07:05:01;16.87;;;9.30;;
62852;SDS011;49205;44.868;38.140;2022-12-10T07:07:30;13.20;;;8.83;;
62852;SDS011;49205;44.868;38.140;2022-12-10T07:10:00;12.90;;;8.35;;
62852;SDS011;49205;44.868;38.140;2022-12-10T07:12:29;11.97;;;8.85;;
62852;SDS011;49205;44.868;38.140;2022-12-10T07:14:58;17.10;;;9.25;;
62852;SDS011;49205;44.868;38.140;2022-12-10T07:17:28;15.72;;;10.28;;
62852;SDS011;49205;44.868;38.140;2022-12-10T07:19:57;19.32;;;12.40;;
62852;SDS011;49205;44.868;38.140;2022-12-10T07:22:26;20.97;;;12.33;;
62852;SDS011;49205;44.868;38.140;2022-12-10T07:24:56;15.58;;;11.00;;
62852;SDS011;49205;44.868;38.140;2022-12-10T07:27:25;16.67;;;9.38;;
62852;SDS011;49205;44.868;38.140;2022-12-10T07:29:55;12.65;;;8.73;;
62852;SDS011;49205;44.868;38.140;2022-12-10T07:32:23;14.10;;;9.13;;
62852;SDS011;49205;44.868;38.140;2022-12-10T07:34:54;11.93;;;7.15;;
62852;SDS011;49205;44.868;38.140;2022-12-10T07:37:23;16.27;;;8.43;;
62852;SDS011;49205;44.868;38.140;2022-12-10T07:39:53;11.05;;;7.42;;
62852;SDS011;49205;44.868;38.140;2022-12-10T07:42:22;9.50;;;6.50;;
62852;SDS011;49205;44.868;38.140;2022-12-10T07:44:51;11.35;;;7.08;;
62852;SDS011;49205;44.868;38.140;2022-12-10T07:47:21;12.68;;;8.15;;
62852;SDS011;49205;44.868;38.140;2022-12-10T07:49:50;11.73;;;8.25;;
62852;SDS011;49205;44.868;38.140;2022-12-10T07:52:19;10.63;;;7.53;;
62852;SDS011;49205;44.868;38.140;2022-12-10T07:54:48;10.30;;;6.87;;
62852;SDS011;49205;44.868;38.140;2022-12-10T07:57:18;11.20;;;7.37;;
62852;SDS011;49205;44.868;38.140;2022-12-10T07:59:47;10.80;;;6.72;;
62852;SDS011;49205;44.868;38.140;2022-12-10T08:02:16;13.72;;;7.35;;
62852;SDS011;49205;44.868;38.140;2022-12-10T08:04:45;15.08;;;8.55;;
62852;SDS011;49205;44.868;38.140;2022-12-10T08:07:15;8.38;;;6.12;;
62852;SDS011;49205;44.868;38.140;2022-12-10T08:09:44;10.68;;;6.80;;
62852;SDS011;49205;44.868;38.140;2022-12-10T08:12:13;9.28;;;6.22;;
62852;SDS011;49205;44.868;38.140;2022-12-10T08:14:42;9.60;;;7.03;;
62852;SDS011;49205;44.868;38.140;2022-12-10T08:17:11;11.10;;;6.80;;
62852;SDS011;49205;44.868;38.140;2022-12-10T08:19:40;11.45;;;7.33;;
62852;SDS011;49205;44.868;38.140;2022-12-10T08:22:09;9.93;;;6.03;;
62852;SDS011;49205;44.868;38.140;2022-12-10T08:24:39;21.62;;;6.85;;
62852;SDS011;49205;44.868;38.140;2022-12-10T08:27:08;7.90;;;5.65;;
62852;SDS011;49205;44.868;38.140;2022-12-10T08:29:37;9.03;;;6.15;;
62852;SDS011;49205;44.868;38.140;2022-12-10T08:32:06;9.55;;;6.33;;
62852;SDS011;49205;44.868;38.140;2022-12-10T08:34:36;11.68;;;6.08;;
62852;SDS011;49205;44.868;38.140;2022-12-10T08:37:08;9.68;;;6.53;;
62852;SDS011;49205;44.868;38.140;2022-12-10T08:39:37;14.43;;;7.87;;
62852;SDS011;49205;44.868;38.140;2022-12-10T08:42:07;13.70;;;7.53;;
62852;SDS011;49205;44.868;38.140;2022-12-10T08:44:36;10.10;;;6.47;;
62852;SDS011;49205;44.868;38.140;2022-12-10T08:47:06;8.68;;;6.25;;
62852;SDS011;49205;44.868;38.140;2022-12-10T08:49:35;11.03;;;6.47;;
62852;SDS011;49205;44.868;38.140;2022-12-10T08:52:05;12.90;;;7.33;;
62852;SDS011;49205;44.868;38.140;2022-12-10T08:54:34;10.15;;;6.60;;
62852;SDS011;49205;44.868;38.140;2022-12-10T08:57:03;7.87;;;5.47;;
62852;SDS011;49205;44.868;38.140;2022-12-10T08:59:32;12.25;;;7.17;;
62852;SDS011;49205;44.868;38.140;2022-12-10T09:02:02;9.23;;;5.45;;
62852;SDS011;49205;44.868;38.140;2022-12-10T09:04:31;8.40;;;6.15;;
62852;SDS011;49205;44.868;38.140;2022-12-10T09:07:00;9.78;;;6.70;;
62852;SDS011;49205;44.868;38.140;2022-12-10T09:09:35;12.75;;;7.15;;
62852;SDS011;49205;44.868;38.140;2022-12-10T09:12:00;13.05;;;6.70;;
62852;SDS011;49205;44.868;38.140;2022-12-10T09:14:30;11.08;;;7.37;;
62852;SDS011;49205;44.868;38.140;2022-12-10T09:17:02;11.48;;;7.72;;
62852;SDS011;49205;44.868;38.140;2022-12-10T09:19:31;12.10;;;7.45;;
62852;SDS011;49205;44.868;38.140;2022-12-10T09:22:00;12.35;;;7.65;;
62852;SDS011;49205;44.868;38.140;2022-12-10T09:24:30;11.93;;;7.15;;
62852;SDS011;49205;44.868;38.140;2022-12-10T09:26:59;11.12;;;6.90;;
62852;SDS011;49205;44.868;38.140;2022-12-10T09:29:29;13.53;;;8.23;;
62852;SDS011;49205;44.868;38.140;2022-12-10T09:31:58;17.20;;;7.50;;
62852;SDS011;49205;44.868;38.140;2022-12-10T09:34:27;13.98;;;8.45;;
62852;SDS011;49205;44.868;38.140;2022-12-10T09:36:56;12.37;;;8.08;;
62852;SDS011;49205;44.868;38.140;2022-12-10T09:39:25;10.25;;;7.17;;
62852;SDS011;49205;44.868;38.140;2022-12-10T09:42:07;15.15;;;8.78;;
62852;SDS011;49205;44.868;38.140;2022-12-10T09:44:37;18.37;;;8.35;;
62852;SDS011;49205;44.868;38.140;2022-12-10T09:47:10;11.48;;;7.65;;
62852;SDS011;49205;44.868;38.140;2022-12-10T09:52:29;14.55;;;8.23;;
62852;SDS011;49205;44.868;38.140;2022-12-10T09:55:00;14.95;;;8.53;;
62852;SDS011;49205;44.868;38.140;2022-12-10T09:57:33;19.15;;;8.83;;
62852;SDS011;49205;44.868;38.140;2022-12-10T10:05:31;12.05;;;7.35;;
62852;SDS011;49205;44.868;38.140;2022-12-10T10:07:59;12.28;;;6.78;;
62852;SDS011;49205;44.868;38.140;2022-12-10T10:10:36;9.90;;;7.12;;
62852;SDS011;49205;44.868;38.140;2022-12-10T10:15:44;14.40;;;7.92;;
62852;SDS011;49205;44.868;38.140;2022-12-10T10:20:47;19.50;;;9.68;;
62852;SDS011;49205;44.868;38.140;2022-12-10T10:23:17;13.95;;;9.38;;
62852;SDS011;49205;44.868;38.140;2022-12-10T10:25:47;25.02;;;12.80;;
62852;SDS011;49205;44.868;38.140;2022-12-10T10:28:18;10.58;;;8.38;;
62852;SDS011;49205;44.868;38.140;2022-12-10T10:30:48;14.80;;;9.08;;
62852;SDS011;49205;44.868;38.140;2022-12-10T10:33:20;15.28;;;8.28;;
62852;SDS011;49205;44.868;38.140;2022-12-10T10:35:52;11.43;;;7.75;;
62852;SDS011;49205;44.868;38.140;2022-12-10T10:38:28;14.55;;;7.95;;
62852;SDS011;49205;44.868;38.140;2022-12-10T10:40:59;13.90;;;7.40;;
62852;SDS011;49205;44.868;38.140;2022-12-10T10:43:38;12.65;;;7.95;;
62852;SDS011;49205;44.868;38.140;2022-12-10T10:46:21;11.63;;;7.50;;
62852;SDS011;49205;44.868;38.140;2022-12-10T10:48:51;10.60;;;6.78;;
62852;SDS011;49205;44.868;38.140;2022-12-10T10:51:21;9.25;;;6.65;;
62852;SDS011;49205;44.868;38.140;2022-12-10T10:53:51;11.33;;;7.87;;
62852;SDS011;49205;44.868;38.140;2022-12-10T10:56:22;20.10;;;9.08;;
62852;SDS011;49205;44.868;38.140;2022-12-10T10:58:58;14.07;;;8.30;;
62852;SDS011;49205;44.868;38.140;2022-12-10T11:04:28;12.80;;;7.35;;
62852;SDS011;49205;44.868;38.140;2022-12-10T11:06:54;11.28;;;7.37;;
62852;SDS011;49205;44.868;38.140;2022-12-10T11:09:24;14.10;;;8.30;;
62852;SDS011;49205;44.868;38.140;2022-12-10T11:11:59;10.45;;;7.90;;
62852;SDS011;49205;44.868;38.140;2022-12-10T11:19:53;12.35;;;6.47;;
62852;SDS011;49205;44.868;38.140;2022-12-10T11:22:33;15.25;;;7.90;;
62852;SDS011;49205;44.868;38.140;2022-12-10T11:25:02;8.75;;;6.53;;
62852;SDS011;49205;44.868;38.140;2022-12-10T11:30:29;13.18;;;8.15;;
62852;SDS011;49205;44.868;38.140;2022-12-10T11:33:09;12.37;;;8.03;;
62852;SDS011;49205;44.868;38.140;2022-12-10T11:35:59;10.10;;;7.08;;
62852;SDS011;49205;44.868;38.140;2022-12-10T11:41:24;18.55;;;8.55;;
62852;SDS011;49205;44.868;38.140;2022-12-10T11:52:00;13.50;;;7.58;;
62852;SDS011;49205;44.868;38.140;2022-12-10T11:54:36;15.08;;;8.00;;
62852;SDS011;49205;44.868;38.140;2022-12-10T11:59:54;14.33;;;7.45;;
62852;SDS011;49205;44.868;38.140;2022-12-10T12:05:25;13.10;;;7.17;;
62852;SDS011;49205;44.868;38.140;2022-12-10T12:16:40;9.15;;;6.22;;
62852;SDS011;49205;44.868;38.140;2022-12-10T12:19:29;15.23;;;7.67;;
62852;SDS011;49205;44.868;38.140;2022-12-10T12:21:50;11.05;;;7.40;;
62852;SDS011;49205;44.868;38.140;2022-12-10T12:26:57;13.22;;;7.62;;
62852;SDS011;49205;44.868;38.140;2022-12-10T12:29:43;19.25;;;7.40;;
62852;SDS011;49205;44.868;38.140;2022-12-10T12:32:38;12.10;;;8.65;;
62852;SDS011;49205;44.868;38.140;2022-12-10T12:34:52;16.17;;;9.18;;
62852;SDS011;49205;44.868;38.140;2022-12-10T12:37:24;12.88;;;8.63;;
62852;SDS011;49205;44.868;38.140;2022-12-10T12:39:59;17.00;;;9.53;;
62852;SDS011;49205;44.868;38.140;2022-12-10T12:42:29;23.83;;;10.90;;
62852;SDS011;49205;44.868;38.140;2022-12-10T12:45:19;16.70;;;9.53;;
62852;SDS011;49205;44.868;38.140;2022-12-10T12:51:02;14.93;;;8.10;;
62852;SDS011;49205;44.868;38.140;2022-12-10T12:53:36;13.40;;;8.38;;
62852;SDS011;49205;44.868;38.140;2022-12-10T12:56:23;16.87;;;9.85;;
62852;SDS011;49205;44.868;38.140;2022-12-10T12:59:16;27.67;;;13.50;;
62852;SDS011;49205;44.868;38.140;2022-12-10T13:01:47;20.37;;;13.22;;
62852;SDS011;49205;44.868;38.140;2022-12-10T13:04:18;16.07;;;10.20;;
62852;SDS011;49205;44.868;38.140;2022-12-10T13:09:49;20.48;;;11.18;;
62852;SDS011;49205;44.868;38.140;2022-12-10T13:12:27;23.32;;;11.78;;
62852;SDS011;49205;44.868;38.140;2022-12-10T13:24:07;18.05;;;9.63;;
62852;SDS011;49205;44.868;38.140;2022-12-10T13:26:35;17.07;;;10.15;;
62852;SDS011;49205;44.868;38.140;2022-12-10T13:29:12;17.37;;;9.88;;
62852;SDS011;49205;44.868;38.140;2022-12-10T13:32:03;16.40;;;10.75;;
62852;SDS011;49205;44.868;38.140;2022-12-10T13:34:34;15.23;;;9.75;;
62852;SDS011;49205;44.868;38.140;2022-12-10T13:37:06;16.37;;;9.80;;
62852;SDS011;49205;44.868;38.140;2022-12-10T13:39:53;19.57;;;9.63;;
62852;SDS011;49205;44.868;38.140;2022-12-10T13:42:29;16.25;;;9.08;;
62852;SDS011;49205;44.868;38.140;2022-12-10T13:53:00;18.32;;;10.30;;
62852;SDS011;49205;44.868;38.140;2022-12-10T13:55:55;18.92;;;8.65;;
62852;SDS011;49205;44.868;38.140;2022-12-10T13:58:24;15.48;;;8.95;;
62852;SDS011;49205;44.868;38.140;2022-12-10T14:03:56;16.00;;;9.10;;
62852;SDS011;49205;44.868;38.140;2022-12-10T14:06:27;15.93;;;10.53;;
62852;SDS011;49205;44.868;38.140;2022-12-10T14:09:01;15.55;;;10.25;;
62852;SDS011;49205;44.868;38.140;2022-12-10T14:11:34;21.73;;;9.75;;
62852;SDS011;49205;44.868;38.140;2022-12-10T14:14:10;18.50;;;10.08;;
62852;SDS011;49205;44.868;38.140;2022-12-10T14:16:39;18.40;;;10.53;;
62852;SDS011;49205;44.868;38.140;2022-12-10T14:19:11;16.20;;;10.08;;
62852;SDS011;49205;44.868;38.140;2022-12-10T14:21:41;14.40;;;8.23;;
62852;SDS011;49205;44.868;38.140;2022-12-10T14:27:09;13.00;;;8.88;;
62852;SDS011;49205;44.868;38.140;2022-12-10T14:29:47;18.25;;;8.90;;
62852;SDS011;49205;44.868;38.140;2022-12-10T14:32:23;13.85;;;9.83;;
62852;SDS011;49205;44.868;38.140;2022-12-10T14:34:51;18.05;;;9.83;;
62852;SDS011;49205;44.868;38.140;2022-12-10T14:37:23;15.80;;;10.82;;
62852;SDS011;49205;44.868;38.140;2022-12-10T14:39:53;16.10;;;9.35;;
62852;SDS011;49205;44.868;38.140;2022-12-10T14:42:23;13.03;;;9.03;;
62852;SDS011;49205;44.868;38.140;2022-12-10T14:44:59;12.05;;;8.28;;
62852;SDS011;49205;44.868;38.140;2022-12-10T14:47:36;14.90;;;9.38;;
62852;SDS011;49205;44.868;38.140;2022-12-10T14:50:10;12.23;;;8.70;;
62852;SDS011;49205;44.868;38.140;2022-12-10T14:52:41;14.43;;;8.65;;
62852;SDS011;49205;44.868;38.140;2022-12-10T14:55:13;13.55;;;7.65;;
62852;SDS011;49205;44.868;38.140;2022-12-10T14:57:51;15.65;;;8.03;;
62852;SDS011;49205;44.868;38.140;2022-12-10T15:00:19;15.43;;;9.25;;
62852;SDS011;49205;44.868;38.140;2022-12-10T15:02:53;13.00;;;9.23;;
62852;SDS011;49205;44.868;38.140;2022-12-10T15:05:28;13.25;;;10.08;;
62852;SDS011;49205;44.868;38.140;2022-12-10T15:08:02;16.52;;;10.98;;
62852;SDS011;49205;44.868;38.140;2022-12-10T15:10:34;19.87;;;12.13;;
62852;SDS011;49205;44.868;38.140;2022-12-10T15:13:07;18.65;;;10.80;;
62852;SDS011;49205;44.868;38.140;2022-12-10T15:15:38;18.62;;;12.65;;
62852;SDS011;49205;44.868;38.140;2022-12-10T15:26:02;16.82;;;8.63;;
62852;SDS011;49205;44.868;38.140;2022-12-10T15:28:35;13.22;;;8.60;;
62852;SDS011;49205;44.868;38.140;2022-12-10T15:31:18;10.78;;;8.60;;
62852;SDS011;49205;44.868;38.140;2022-12-10T15:34:07;17.50;;;9.35;;
62852;SDS011;49205;44.868;38.140;2022-12-10T15:36:39;11.85;;;8.65;;
62852;SDS011;49205;44.868;38.140;2022-12-10T15:44:19;21.07;;;9.90;;
62852;SDS011;49205;44.868;38.140;2022-12-10T15:49:50;13.05;;;9.23;;
62852;SDS011;49205;44.868;38.140;2022-12-10T15:52:26;18.80;;;10.32;;
62852;SDS011;49205;44.868;38.140;2022-12-10T15:54:53;20.65;;;9.58;;
62852;SDS011;49205;44.868;38.140;2022-12-10T15:57:30;17.60;;;9.30;;
62852;SDS011;49205;44.868;38.140;2022-12-10T16:00:03;18.92;;;9.98;;
62852;SDS011;49205;44.868;38.140;2022-12-10T16:05:13;15.40;;;8.90;;
62852;SDS011;49205;44.868;38.140;2022-12-10T16:10:41;18.75;;;8.95;;
62852;SDS011;49205;44.868;38.140;2022-12-10T16:13:21;20.97;;;9.63;;
62852;SDS011;49205;44.868;38.140;2022-12-10T16:15:53;17.12;;;9.18;;
62852;SDS011;49205;44.868;38.140;2022-12-10T16:18:29;12.05;;;8.35;;
62852;SDS011;49205;44.868;38.140;2022-12-10T16:20:59;18.95;;;9.83;;
62852;SDS011;49205;44.868;38.140;2022-12-10T16:23:28;22.62;;;11.05;;
62852;SDS011;49205;44.868;38.140;2022-12-10T16:25:58;33.65;;;11.45;;
62852;SDS011;49205;44.868;38.140;2022-12-10T16:28:27;43.52;;;16.70;;
62852;SDS011;49205;44.868;38.140;2022-12-10T16:30:57;31.93;;;11.63;;
62852;SDS011;49205;44.868;38.140;2022-12-10T16:33:27;26.65;;;11.50;;
62852;SDS011;49205;44.868;38.140;2022-12-10T16:35:56;29.07;;;13.22;;
62852;SDS011;49205;44.868;38.140;2022-12-10T16:38:25;24.45;;;11.97;;
62852;SDS011;49205;44.868;38.140;2022-12-10T16:40:55;32.00;;;13.60;;
62852;SDS011;49205;44.868;38.140;2022-12-10T16:43:25;63.95;;;15.63;;
62852;SDS011;49205;44.868;38.140;2022-12-10T16:45:59;34.53;;;12.33;;
62852;SDS011;49205;44.868;38.140;2022-12-10T16:48:28;21.82;;;11.18;;
62852;SDS011;49205;44.868;38.140;2022-12-10T16:50:57;38.78;;;12.47;;